Briefing drone pour Echirolles

Rechercher une autre localisation

Conditions de vol :


Nous sommes le : Mardi 16 août 2022
Il est 01:25 UTC (03:25 LT)

Lever de soleil : 04:13 UTC (06:13 LT)
Coucher de soleil : 19:09 UTC (21:09 LT)

Météo

L'essentiel des conditions de vol

VIGILANCE MÉTÉO FRANCE - Isère (38)
Pas de vigilances particulieres
CARTE TEMSI
CARTES DES FRONTS
METAR de LFLS
LFLS 160100Z AUTO 07004KT CAVOK 16/13 Q1010

Date d'émission: 16/08/2022
Heure d'émission: 01:00 UTC
Vent: 070° pour 4 KT (7 km/h)
Visibilité horizontale: > 10 km
Plafond : Plafond et visibilité OK (CAVOK)
Température: 16 °C
Point de rosée: 13 °C
Humidité: 82%
Pression (QNH): 1010 hPa
TAF de LFLS
LFLS 151908Z 1519/1615 CNL

Conditions prévues :

Heure d'émission : Bulletin éffectué le 15 à 19:00 UTC
Prévision : Valide du 15 a 19:00 UTC au 16 a 15:00 UTC
Nuages : à 0ft (0 m)
WEBCAM POUR ECHIROLLES

Réglementation

Voler en sécurité

CARTES AERONAUTIQUE 1/500.000
CARTE AZBA (Reseau basse altitude)
CARTES VAC (LFLS)
SUP AIP




Chargement des AIP...
NOTAM (ECHIROLLES + Terrain à proximité / FIR )




Chargement des NOTAMS...
CONTACT PREFECTURE 38


Avertissement : Les données mises à disposition sont indicatives. Oxygène Drone ne pourra être tenu responsable de dégâts causés aux biens et aux personnes.